Nieuwegein, Netherlands
Current Conditions -  °F | °C
As of 2:55 PM on Monday 24 Nov 2014 (Local Time) from EHAM Reporting Station
Scattered Clouds Scattered Clouds  
Wind Chill: 50°   Ceiling: Unl
Heat Index: 50°   Visibility: 6mi
Dew Point: 43°   Wind: 8mph
Humidity: 76%   Direction: 280°W
Pressure: 30.27"   Gusts: NA
Location:  52.03°N, 5.08°E
Report Text: EHAM 241355Z 28007KT 9999 FEW025 SCT042 10/06 Q1025 NOSIG
Loading
Personal Weather Stations






























Interactive Weather Map New forecast layout! Learn more

10-Day Weather Forecast

Advertisements
Track Severe Weather on mobile